createdAt,value
2019-03-08T00:00:41.969Z,74.22
2019-03-08T00:01:42.001Z,73.19
2019-03-08T00:02:41.949Z,74.02
2019-03-08T00:03:41.966Z,74.43
2019-03-08T00:04:41.954Z,74.33
2019-03-08T00:05:41.917Z,74.98
2019-03-08T00:06:41.903Z,74.87
2019-03-08T00:07:41.913Z,74.87
2019-03-08T00:08:41.883Z,74.67
2019-03-08T00:09:41.871Z,74.15
2019-03-08T00:10:41.860Z,74.95
2019-03-08T00:11:41.848Z,75.08
2019-03-08T00:12:41.853Z,76.11
2019-03-08T00:13:41.829Z,76.01
2019-03-08T00:14:41.812Z,75.70
2019-03-08T00:15:41.801Z,76.11
2019-03-08T00:16:41.792Z,75.80
2019-03-08T00:17:41.820Z,76.01
2019-03-08T00:18:41.768Z,76.31
2019-03-08T00:19:41.759Z,77.34
2019-03-08T00:20:41.745Z,78.37
2019-03-08T00:21:41.733Z,79.64
2019-03-08T00:22:41.725Z,80.57
2019-03-08T00:23:41.729Z,81.91
2019-03-08T00:24:41.698Z,82.67
2019-03-08T00:25:43.545Z,83.59
2019-03-08T00:26:41.677Z,84.66
2019-03-08T00:27:41.685Z,86.00
2019-03-08T00:28:41.652Z,85.83
2019-03-08T00:29:41.645Z,86.87
2019-03-08T00:30:41.635Z,87.52
2019-03-08T00:31:41.624Z,88.14
2019-03-08T00:32:41.646Z,88.56
2019-03-08T00:33:41.603Z,89.79
2019-03-08T00:34:41.615Z,90.25
2019-03-08T00:35:41.579Z,90.00
2019-03-08T00:36:41.585Z,90.10
2019-03-08T00:37:41.573Z,91.34
2019-03-08T00:38:41.543Z,89.62
2019-03-08T00:39:41.535Z,90.14
2019-03-08T00:40:41.521Z,88.86
2019-03-08T00:41:41.508Z,89.07
2019-03-08T00:42:41.520Z,89.28
2019-03-08T00:43:41.488Z,90.25
2019-03-08T00:44:41.474Z,89.17
2019-03-08T00:45:41.462Z,88.35
2019-03-08T00:46:41.450Z,88.86
2019-03-08T00:47:43.403Z,88.39
2019-03-08T00:48:41.427Z,88.49
2019-03-08T00:49:41.417Z,88.45
2019-03-08T00:50:41.404Z,88.45
2019-03-08T00:51:41.396Z,88.08
2019-03-08T00:52:41.405Z,88.24
2019-03-08T00:53:41.373Z,88.35
2019-03-08T00:54:41.358Z,87.73
2019-03-08T00:55:41.349Z,87.32
2019-03-08T00:56:41.336Z,87.52
2019-03-08T00:57:41.344Z,87.21
2019-03-08T00:58:41.315Z,87.32
2019-03-08T00:59:41.300Z,87.11
2019-03-08T01:00:41.291Z,86.87
2019-03-08T01:01:41.305Z,86.15
2019-03-08T01:02:41.338Z,86.04
2019-03-08T01:03:41.257Z,87.27
2019-03-08T01:04:41.246Z,85.94
2019-03-08T01:05:41.254Z,86.45
2019-03-08T01:06:41.222Z,87.07
2019-03-08T01:07:41.288Z,85.42
2019-03-08T01:08:41.198Z,85.63
2019-03-08T01:09:41.207Z,86.76
2019-03-08T01:10:41.196Z,86.97
2019-03-08T01:11:41.166Z,86.55
2019-03-08T01:12:41.166Z,86.87
2019-03-08T01:13:41.158Z,86.66
2019-03-08T01:14:41.132Z,87.48
2019-03-08T01:15:41.129Z,87.38
2019-03-08T01:16:41.109Z,86.55
2019-03-08T01:17:41.112Z,87.38
2019-03-08T01:18:41.100Z,86.97
2019-03-08T01:19:41.098Z,87.38
2019-03-08T01:20:41.061Z,87.48
2019-03-08T01:21:41.046Z,87.63
2019-03-08T01:22:41.037Z,88.10
2019-03-08T01:23:41.045Z,87.99
2019-03-08T01:24:41.013Z,88.41
2019-03-08T01:25:41.001Z,88.41
2019-03-08T01:26:40.989Z,88.20
2019-03-08T01:27:40.978Z,88.41
2019-03-08T01:28:40.985Z,88.31
2019-03-08T01:29:41.001Z,88.24
2019-03-08T01:30:40.949Z,87.93
2019-03-08T01:31:40.933Z,88.51
2019-03-08T01:32:40.923Z,88.41
2019-03-08T01:33:40.927Z,89.07
2019-03-08T01:34:40.901Z,89.44
2019-03-08T01:35:40.887Z,88.86
2019-03-08T01:36:40.878Z,89.38
2019-03-08T01:37:40.866Z,89.95
2019-03-08T01:38:40.874Z,90.20
2019-03-08T01:39:40.842Z,90.00
2019-03-08T01:40:40.833Z,90.00
2019-03-08T01:41:40.821Z,89.58
2019-03-08T01:42:40.808Z,90.31
2019-03-08T01:43:40.816Z,90.47
2019-03-08T01:44:40.787Z,90.61
2019-03-08T01:45:40.775Z,90.20
2019-03-08T01:46:40.763Z,91.24
2019-03-08T01:47:40.750Z,91.13
2019-03-08T01:48:40.782Z,92.27
2019-03-08T01:49:40.732Z,92.37
2019-03-08T01:50:40.717Z,92.47
2019-03-08T01:51:40.708Z,92.06
2019-03-08T01:52:40.699Z,92.06
2019-03-08T01:53:40.692Z,91.96
2019-03-08T01:54:40.693Z,92.41
2019-03-08T01:55:40.666Z,92.88
2019-03-08T01:56:40.649Z,94.06
2019-03-08T01:57:40.641Z,93.85
2019-03-08T01:58:40.627Z,93.71
2019-03-08T01:59:40.639Z,94.89
2019-03-08T02:00:40.905Z,93.96
2019-03-08T02:01:40.595Z,94.37
2019-03-08T02:02:40.584Z,95.20
2019-03-08T02:03:40.571Z,95.40
2019-03-08T02:04:40.558Z,94.57
2019-03-08T02:05:40.567Z,94.68
2019-03-08T02:06:40.538Z,96.02
2019-03-08T02:07:40.525Z,96.23
2019-03-08T02:08:40.514Z,95.09
2019-03-08T02:09:40.504Z,94.99
2019-03-08T02:10:40.509Z,93.96
2019-03-08T02:11:40.481Z,94.89
2019-03-08T02:12:42.043Z,94.64
2019-03-08T02:13:40.458Z,94.47
2019-03-08T02:14:40.445Z,94.89
2019-03-08T02:15:40.454Z,95.09
2019-03-08T02:16:40.424Z,94.99
2019-03-08T02:17:40.410Z,95.92
2019-03-08T02:18:40.400Z,95.77
2019-03-08T02:19:40.389Z,95.50
2019-03-08T02:20:40.399Z,94.64
2019-03-08T02:21:40.368Z,94.78
2019-03-08T02:22:40.359Z,94.78
2019-03-08T02:23:40.345Z,94.68
2019-03-08T02:24:40.332Z,94.68
2019-03-08T02:25:40.369Z,94.47
2019-03-08T02:26:40.313Z,95.09
2019-03-08T02:27:47.361Z,94.68
2019-03-08T02:28:40.290Z,94.89
2019-03-08T02:29:40.275Z,94.78
2019-03-08T02:30:40.266Z,94.37
2019-03-08T02:31:40.272Z,95.20
2019-03-08T02:32:40.248Z,96.08
2019-03-08T02:33:40.297Z,94.23
2019-03-08T02:34:40.221Z,94.02
2019-03-08T02:35:40.210Z,94.12
2019-03-08T02:36:40.212Z,93.91
2019-03-08T02:37:40.188Z,93.75
2019-03-08T02:38:40.175Z,94.02
2019-03-08T02:39:40.162Z,94.12
2019-03-08T02:40:40.150Z,93.81
2019-03-08T02:41:40.158Z,94.64
2019-03-08T02:42:40.130Z,94.68
2019-03-08T02:43:40.117Z,94.84
2019-03-08T02:44:40.104Z,94.68
2019-03-08T02:45:40.094Z,94.78
2019-03-08T02:46:40.123Z,95.09
2019-03-08T02:47:40.069Z,94.78
2019-03-08T02:48:40.058Z,94.89
2019-03-08T02:49:40.047Z,94.78
2019-03-08T02:50:40.038Z,95.20
2019-03-08T02:51:40.025Z,94.68
2019-03-08T02:52:40.030Z,95.20
2019-03-08T02:53:39.999Z,95.09
2019-03-08T02:54:39.989Z,95.77
2019-03-08T02:55:39.979Z,95.30
2019-03-08T02:56:39.968Z,96.02
2019-03-08T02:57:39.975Z,95.25
2019-03-08T02:58:39.943Z,95.67
2019-03-08T02:59:39.931Z,95.56
2019-03-08T03:00:39.918Z,95.71
2019-03-08T03:01:39.910Z,95.81
2019-03-08T03:02:39.923Z,97.56
2019-03-08T03:03:39.883Z,97.56
2019-03-08T03:04:39.876Z,97.26
2019-03-08T03:05:39.863Z,97.72
2019-03-08T03:06:39.850Z,97.36
2019-03-08T03:07:39.841Z,97.16
2019-03-08T03:08:39.845Z,97.41
2019-03-08T03:09:39.817Z,97.51
2019-03-08T03:10:39.805Z,97.55
2019-03-08T03:11:39.791Z,97.55
2019-03-08T03:12:39.782Z,97.45
2019-03-08T03:13:39.789Z,97.55
2019-03-08T03:14:39.758Z,97.97
2019-03-08T03:15:39.751Z,97.86
2019-03-08T03:16:39.734Z,97.55
2019-03-08T03:17:39.724Z,97.25
2019-03-08T03:18:39.730Z,97.25
2019-03-08T03:19:39.701Z,98.07
2019-03-08T03:20:39.688Z,97.34
2019-03-08T03:21:39.677Z,98.53
2019-03-08T03:22:39.664Z,98.01
2019-03-08T03:23:39.671Z,97.71
2019-03-08T03:24:39.642Z,98.22
2019-03-08T03:25:39.633Z,98.23
2019-03-08T03:26:39.620Z,97.41
2019-03-08T03:27:39.608Z,96.31
2019-03-08T03:28:39.621Z,96.01
2019-03-08T03:29:39.587Z,96.42
2019-03-08T03:30:39.578Z,96.36
2019-03-08T03:31:39.563Z,96.98
2019-03-08T03:32:39.552Z,96.88
2019-03-08T03:33:39.539Z,96.56
2019-03-08T03:34:39.576Z,96.67
2019-03-08T03:35:39.518Z,96.05
2019-03-08T03:36:39.506Z,96.26
2019-03-08T03:37:39.510Z,96.82
2019-03-08T03:38:39.482Z,97.81
2019-03-08T03:39:39.497Z,97.96
2019-03-08T03:40:39.462Z,97.44
2019-03-08T03:41:39.447Z,97.75
2019-03-08T03:42:39.439Z,97.54
2019-03-08T03:43:39.425Z,97.85
2019-03-08T03:44:39.411Z,97.89
2019-03-08T03:45:39.420Z,97.89
2019-03-08T03:46:39.390Z,97.85
2019-03-08T03:47:39.377Z,97.59
2019-03-08T03:48:39.367Z,97.96
2019-03-08T03:49:39.354Z,97.49
2019-03-08T03:50:39.361Z,97.13
2019-03-08T03:51:39.333Z,96.66
2019-03-08T03:52:39.323Z,96.77
2019-03-08T03:53:39.309Z,96.61
2019-03-08T03:54:39.296Z,96.77
2019-03-08T03:55:39.304Z,96.92
2019-03-08T03:56:39.273Z,97.02
2019-03-08T03:57:39.264Z,97.08
2019-03-08T03:58:39.249Z,97.44
2019-03-08T03:59:39.241Z,97.85
2019-03-08T04:00:39.247Z,97.96
2019-03-08T04:01:39.218Z,97.96
2019-03-08T04:02:39.206Z,97.64
2019-03-08T04:03:39.193Z,97.81
2019-03-08T04:04:39.182Z,98.01
2019-03-08T04:05:39.202Z,97.50
2019-03-08T04:06:39.157Z,97.60
2019-03-08T04:07:39.148Z,97.50
2019-03-08T04:08:39.136Z,97.08
2019-03-08T04:09:39.125Z,96.98
2019-03-08T04:10:39.137Z,97.08
2019-03-08T04:11:39.104Z,97.60
2019-03-08T04:12:39.094Z,97.08
2019-03-08T04:13:39.082Z,96.94
2019-03-08T04:14:39.067Z,96.31
2019-03-08T04:15:39.058Z,96.42
2019-03-08T04:16:39.065Z,96.42
2019-03-08T04:17:39.034Z,96.52
2019-03-08T04:18:39.022Z,95.90
2019-03-08T04:19:39.013Z,95.90
2019-03-08T04:20:39.001Z,96.01
2019-03-08T04:21:39.011Z,95.90
2019-03-08T04:22:38.978Z,95.90
2019-03-08T04:23:38.967Z,95.90
2019-03-08T04:24:38.963Z,96.01
2019-03-08T04:25:38.945Z,95.90
2019-03-08T04:26:38.932Z,95.80
2019-03-08T04:27:38.937Z,96.01
2019-03-08T04:28:38.906Z,96.01
2019-03-08T04:29:38.896Z,95.39
2019-03-08T04:30:38.885Z,96.11
2019-03-08T04:31:38.873Z,96.31
2019-03-08T04:32:38.885Z,95.39
2019-03-08T04:33:38.849Z,96.21
2019-03-08T04:34:38.840Z,95.70
2019-03-08T04:35:38.828Z,96.01
2019-03-08T04:36:38.820Z,95.84
2019-03-08T04:37:38.824Z,95.39
2019-03-08T04:38:38.796Z,95.07
2019-03-08T04:39:38.782Z,95.18
2019-03-08T04:40:38.773Z,95.59
2019-03-08T04:41:38.758Z,96.01
2019-03-08T04:42:38.769Z,95.39
2019-03-08T04:43:38.736Z,96.62
2019-03-08T04:44:38.725Z,95.76
2019-03-08T04:45:38.716Z,94.93
2019-03-08T04:46:38.701Z,94.62
2019-03-08T04:47:38.712Z,94.42
2019-03-08T04:48:38.685Z,93.94
2019-03-08T04:49:38.670Z,94.04
2019-03-08T04:50:38.659Z,94.25
2019-03-08T04:51:38.647Z,95.18
2019-03-08T04:52:38.653Z,94.87
2019-03-08T04:53:38.625Z,94.46
2019-03-08T04:54:38.612Z,94.56
2019-03-08T04:55:38.600Z,95.18
2019-03-08T04:56:38.589Z,94.97
2019-03-08T04:57:38.617Z,94.87
2019-03-08T04:58:38.571Z,95.07
2019-03-08T04:59:38.556Z,95.07
2019-03-08T05:00:38.545Z,94.77
2019-03-08T05:01:38.535Z,95.02
2019-03-08T05:02:38.522Z,95.02
2019-03-08T05:03:38.528Z,94.77
2019-03-08T05:04:38.502Z,95.12
2019-03-08T05:05:38.487Z,94.92
2019-03-08T05:06:38.476Z,94.81
2019-03-08T05:07:38.475Z,95.32
2019-03-08T05:08:38.473Z,95.02
2019-03-08T05:09:38.444Z,94.92
2019-03-08T05:10:38.432Z,94.77
2019-03-08T05:11:38.418Z,95.18
2019-03-08T05:12:38.408Z,95.07
2019-03-08T05:13:38.418Z,94.46
2019-03-08T05:14:38.385Z,95.80
2019-03-08T05:15:38.376Z,95.39
2019-03-08T05:16:38.363Z,94.46
2019-03-08T05:17:38.352Z,93.94
2019-03-08T05:18:38.390Z,93.94
2019-03-08T05:19:38.331Z,93.73
2019-03-08T05:20:38.319Z,93.84
2019-03-08T05:21:38.306Z,94.04
2019-03-08T05:22:38.296Z,93.94
2019-03-08T05:23:38.280Z,94.97
2019-03-08T05:24:38.291Z,94.97
2019-03-08T05:25:38.260Z,93.63
2019-03-08T05:26:38.247Z,94.04
2019-03-08T05:27:38.236Z,94.09
2019-03-08T05:28:38.225Z,94.46
2019-03-08T05:29:38.235Z,93.84
2019-03-08T05:30:38.200Z,94.56
2019-03-08T05:31:38.190Z,94.15
2019-03-08T05:32:38.178Z,93.73
2019-03-08T05:33:38.165Z,94.15
2019-03-08T05:34:38.176Z,93.43
2019-03-08T05:35:38.144Z,93.63
2019-03-08T05:36:38.131Z,93.63
2019-03-08T05:37:38.119Z,93.32
2019-03-08T05:38:38.111Z,93.68
2019-03-08T05:39:38.099Z,94.25
2019-03-08T05:40:38.102Z,94.15
2019-03-08T05:41:38.073Z,93.88
2019-03-08T05:42:38.062Z,93.94
2019-03-08T05:43:38.053Z,93.73
2019-03-08T05:44:38.039Z,93.94
2019-03-08T05:45:38.047Z,94.35
2019-03-08T05:46:38.015Z,93.73
2019-03-08T05:47:38.003Z,94.46
2019-03-08T05:48:37.995Z,93.94
2019-03-08T05:49:37.981Z,94.04
2019-03-08T05:50:37.988Z,94.00
2019-03-08T05:51:37.960Z,93.32
2019-03-08T05:52:37.948Z,93.94
2019-03-08T05:53:37.936Z,94.19
2019-03-08T05:54:37.937Z,94.04
2019-03-08T05:55:37.930Z,93.94
2019-03-08T05:56:37.901Z,94.50
2019-03-08T05:57:37.888Z,93.94
2019-03-08T05:58:37.895Z,94.25
2019-03-08T05:59:37.872Z,94.25
2019-03-08T06:00:37.874Z,94.50
2019-03-08T06:01:37.843Z,94.25
2019-03-08T06:02:37.831Z,93.94
2019-03-08T06:03:37.819Z,94.97
2019-03-08T06:04:37.807Z,95.07
2019-03-08T06:05:37.815Z,94.46
2019-03-08T06:06:37.786Z,94.97
2019-03-08T06:07:37.776Z,94.04
2019-03-08T06:08:37.762Z,94.15
2019-03-08T06:09:37.751Z,93.63
2019-03-08T06:10:37.757Z,93.63
2019-03-08T06:11:37.729Z,93.43
2019-03-08T06:12:37.716Z,93.84
2019-03-08T06:13:37.705Z,93.53
2019-03-08T06:14:37.695Z,93.01
2019-03-08T06:15:37.700Z,93.22
2019-03-08T06:16:37.670Z,93.22
2019-03-08T06:17:37.671Z,93.12
2019-03-08T06:18:37.647Z,93.12
2019-03-08T06:19:37.635Z,93.32
2019-03-08T06:20:37.646Z,93.22
2019-03-08T06:21:37.613Z,93.01
2019-03-08T06:22:37.602Z,93.22
2019-03-08T06:23:37.592Z,93.53
2019-03-08T06:24:37.582Z,93.47
2019-03-08T06:25:37.587Z,92.70
2019-03-08T06:26:37.556Z,93.12
2019-03-08T06:27:37.545Z,93.12
2019-03-08T06:28:37.538Z,93.43
2019-03-08T06:29:37.521Z,93.32
2019-03-08T06:30:37.528Z,93.32
2019-03-08T06:31:37.499Z,93.01
2019-03-08T06:32:37.487Z,92.19
2019-03-08T06:33:37.474Z,93.12
2019-03-08T06:34:37.467Z,92.91
2019-03-08T06:35:37.471Z,92.50
2019-03-08T06:36:37.446Z,92.35
2019-03-08T06:37:37.429Z,92.91
2019-03-08T06:38:37.422Z,93.32
2019-03-08T06:39:37.405Z,93.12
2019-03-08T06:40:37.415Z,93.12
2019-03-08T06:41:37.381Z,92.80
2019-03-08T06:42:37.371Z,92.40
2019-03-08T06:43:37.358Z,92.66
2019-03-08T06:44:37.348Z,93.28
2019-03-08T06:45:37.354Z,92.66
2019-03-08T06:46:37.327Z,92.55
2019-03-08T06:47:37.313Z,92.66
2019-03-08T06:48:37.302Z,93.07
2019-03-08T06:49:37.292Z,92.25
2019-03-08T06:50:37.302Z,91.83
2019-03-08T06:51:37.271Z,91.73
2019-03-08T06:52:37.257Z,91.63
2019-03-08T06:53:37.245Z,91.32
2019-03-08T06:54:37.236Z,91.56
2019-03-08T06:55:37.246Z,91.94
2019-03-08T06:56:37.212Z,91.83
2019-03-08T06:57:37.199Z,91.83
2019-03-08T06:58:37.191Z,92.25
2019-03-08T06:59:37.197Z,91.83
2019-03-08T07:00:37.229Z,91.83
2019-03-08T07:01:37.158Z,91.63
2019-03-08T07:02:37.146Z,90.80
2019-03-08T07:03:37.139Z,91.32
2019-03-08T07:04:37.121Z,91.42
2019-03-08T07:05:37.120Z,91.22
2019-03-08T07:06:37.117Z,91.63
2019-03-08T07:07:37.087Z,91.63
2019-03-08T07:08:37.080Z,91.22
2019-03-08T07:09:37.068Z,90.59
2019-03-08T07:10:37.054Z,90.35
2019-03-08T07:11:37.059Z,90.39
2019-03-08T07:12:37.031Z,90.80
2019-03-08T07:13:37.019Z,90.04
2019-03-08T07:14:37.009Z,89.77
2019-03-08T07:15:36.999Z,90.49
2019-03-08T07:16:37.005Z,90.28
2019-03-08T07:17:36.975Z,90.59
2019-03-08T07:18:36.963Z,90.19
2019-03-08T07:19:40.968Z,90.39
2019-03-08T07:20:37.938Z,90.45
2019-03-08T07:21:36.950Z,89.94
2019-03-08T07:22:36.921Z,89.77
2019-03-08T07:23:36.905Z,88.95
2019-03-08T07:24:36.894Z,89.36
2019-03-08T07:25:36.885Z,89.15
2019-03-08T07:26:36.893Z,89.22
2019-03-08T07:27:36.864Z,89.22
2019-03-08T07:28:36.857Z,88.95
2019-03-08T07:29:36.842Z,89.42
2019-03-08T07:30:36.827Z,89.42
2019-03-08T07:31:36.836Z,89.32
2019-03-08T07:32:36.804Z,89.73
2019-03-08T07:33:36.800Z,88.39
2019-03-08T07:34:36.784Z,88.49
2019-03-08T07:35:36.773Z,89.22
2019-03-08T07:36:36.801Z,89.52
2019-03-08T07:37:36.748Z,89.42
2019-03-08T07:38:36.737Z,88.70
2019-03-08T07:39:36.727Z,89.48
2019-03-08T07:40:36.717Z,89.01
2019-03-08T07:41:36.704Z,88.18
2019-03-08T07:42:36.713Z,88.39
2019-03-08T07:43:36.703Z,88.24
2019-03-08T07:44:36.669Z,88.45
2019-03-08T07:45:36.660Z,88.24
2019-03-08T07:46:36.647Z,89.38
2019-03-08T07:47:36.658Z,88.62
2019-03-08T07:48:36.625Z,88.04
2019-03-08T07:49:36.611Z,88.20
2019-03-08T07:50:36.604Z,88.04
2019-03-08T07:51:36.588Z,88.20
2019-03-08T07:52:36.597Z,87.93
2019-03-08T07:53:36.569Z,86.45
2019-03-08T07:54:36.554Z,87.59
2019-03-08T07:55:36.548Z,86.87
2019-03-08T07:56:36.533Z,87.42
2019-03-08T07:57:36.544Z,86.97
2019-03-08T07:58:36.510Z,86.45
2019-03-08T07:59:36.499Z,87.03
2019-03-08T08:00:36.487Z,85.65
2019-03-08T08:01:36.475Z,84.89
2019-03-08T08:02:36.482Z,82.90
2019-03-08T08:03:36.452Z,82.00
2019-03-08T08:04:36.442Z,80.11
2019-03-08T08:05:36.427Z,80.14
2019-03-08T08:06:36.418Z,78.70
2019-03-08T08:07:36.421Z,79.19
2019-03-08T08:08:36.395Z,78.67
2019-03-08T08:09:36.381Z,79.70
2019-03-08T08:10:36.372Z,78.05
2019-03-08T08:11:36.359Z,77.29
2019-03-08T08:12:36.370Z,77.06
2019-03-08T08:13:36.335Z,75.76
2019-03-08T08:14:39.564Z,74.36
2019-03-08T08:15:36.313Z,76.44
2019-03-08T08:16:36.302Z,77.61
2019-03-08T08:17:36.308Z,79.42
2019-03-08T08:18:36.277Z,79.83
2019-03-08T08:19:36.267Z,80.01
2019-03-08T08:20:36.257Z,81.59
2019-03-08T08:21:36.245Z,82.20
2019-03-08T08:22:36.273Z,84.30
2019-03-08T08:23:36.225Z,83.17
2019-03-08T08:24:36.211Z,83.11
2019-03-08T08:25:37.016Z,84.95
2019-03-08T08:26:36.192Z,85.43
2019-03-08T08:28:28.577Z,83.04
2019-03-08T08:29:35.067Z,83.99
2019-03-08T08:30:29.544Z,82.18
2019-03-08T08:31:28.528Z,83.06
2019-03-08T08:32:28.520Z,81.79
2019-03-08T08:33:28.522Z,79.53
2019-03-08T08:34:28.492Z,80.91
2019-03-08T08:35:28.486Z,81.32
2019-03-08T08:36:28.473Z,82.07
2019-03-08T08:37:28.458Z,82.28
2019-03-08T08:38:28.466Z,81.97
2019-03-08T08:39:28.449Z,82.73
2019-03-08T08:40:28.423Z,82.63
2019-03-08T08:41:28.411Z,82.63
2019-03-08T08:42:28.402Z,82.53
2019-03-08T08:43:28.405Z,83.55
2019-03-08T08:44:28.374Z,83.86
2019-03-08T08:45:28.363Z,84.07
2019-03-08T08:46:28.353Z,82.53
2019-03-08T08:47:28.341Z,81.76
2019-03-08T08:48:28.347Z,81.97
2019-03-08T08:49:28.321Z,81.32
2019-03-08T08:50:28.306Z,80.49
2019-03-08T08:51:28.292Z,79.74
2019-03-08T08:52:28.283Z,79.22
2019-03-08T08:53:28.288Z,79.02
2019-03-08T08:54:28.257Z,79.22
2019-03-08T08:55:28.247Z,78.57
2019-03-08T08:56:28.236Z,74.15
2019-03-08T08:57:28.227Z,72.75
2019-03-08T08:58:28.255Z,72.48
2019-03-08T08:59:28.202Z,73.64
2019-03-08T09:00:28.190Z,76.04
2019-03-08T09:01:28.181Z,77.17
2019-03-08T09:02:28.166Z,75.62
2019-03-08T09:03:28.155Z,75.42
2019-03-08T09:04:28.164Z,72.24
2019-03-08T09:05:28.134Z,68.40
2019-03-08T09:06:28.122Z,64.60
2019-03-08T09:07:28.111Z,65.83
2019-03-08T09:08:28.099Z,65.22
2019-03-08T09:09:28.112Z,63.95
2019-03-08T09:10:28.074Z,67.61
2019-03-08T09:11:28.064Z,68.90
2019-03-08T09:12:28.050Z,69.48
2019-03-08T09:13:28.043Z,70.06
2019-03-08T09:14:28.045Z,70.67
2019-03-08T09:15:28.016Z,69.13
2019-03-08T09:16:28.004Z,71.22
2019-03-08T09:17:27.994Z,71.56
2019-03-08T09:18:27.983Z,71.76
2019-03-08T09:19:27.990Z,71.45
2019-03-08T09:20:27.959Z,71.62
2019-03-08T09:21:27.949Z,71.80
2019-03-08T09:22:27.935Z,72.00
2019-03-08T09:23:27.923Z,73.98
2019-03-08T09:24:27.932Z,74.80
2019-03-08T09:25:27.901Z,74.32
2019-03-08T09:26:27.890Z,75.04
2019-03-08T09:27:27.885Z,75.76
2019-03-08T09:28:27.868Z,75.35
2019-03-08T09:29:27.892Z,74.70
2019-03-08T09:30:27.847Z,73.88
2019-03-08T09:31:27.833Z,74.40
2019-03-08T09:32:27.828Z,74.70
2019-03-08T09:33:27.812Z,75.45
2019-03-08T09:34:27.796Z,75.35
2019-03-08T09:35:27.806Z,76.38
2019-03-08T09:36:27.775Z,76.28
2019-03-08T09:37:27.764Z,76.10
2019-03-08T09:38:27.751Z,76.93
2019-03-08T09:39:27.744Z,76.93
2019-03-08T09:40:27.749Z,76.51
2019-03-08T09:41:27.717Z,76.93
2019-03-08T09:42:27.707Z,76.97
2019-03-08T09:43:27.697Z,76.31
2019-03-08T09:44:27.682Z,76.21
2019-03-08T09:45:27.690Z,73.85
2019-03-08T09:46:27.658Z,70.71
2019-03-08T09:47:27.647Z,64.46
2019-03-08T09:48:27.637Z,65.77
2019-03-08T09:49:27.623Z,67.47
2019-03-08T09:50:27.630Z,69.07
2019-03-08T09:51:27.601Z,68.49
2019-03-08T09:52:27.590Z,69.06
2019-03-08T09:53:27.578Z,69.51
2019-03-08T09:54:27.566Z,70.87
2019-03-08T09:55:27.573Z,70.87
2019-03-08T09:56:27.542Z,70.87
2019-03-08T09:57:27.530Z,70.70
2019-03-08T09:58:27.524Z,71.62
2019-03-08T09:59:27.650Z,71.55
2019-03-08T10:00:27.514Z,71.89
2019-03-08T10:01:27.486Z,72.27
2019-03-08T10:02:27.474Z,73.30
2019-03-08T10:03:27.464Z,74.32
2019-03-08T10:04:27.456Z,72.78
2019-03-08T10:05:27.473Z,72.78
2019-03-08T10:06:27.429Z,73.19
2019-03-08T10:07:27.415Z,73.95
2019-03-08T10:08:27.405Z,72.58
2019-03-08T10:09:27.391Z,70.60
2019-03-08T10:10:27.403Z,70.12
2019-03-08T10:11:27.367Z,71.08
2019-03-08T10:12:29.315Z,70.97
2019-03-08T10:13:27.345Z,71.28
2019-03-08T10:14:27.334Z,70.97
2019-03-08T10:15:27.329Z,68.27
2019-03-08T10:16:27.346Z,68.38
2019-03-08T10:17:27.299Z,69.23
2019-03-08T10:18:27.289Z,69.33
2019-03-08T10:19:27.279Z,70.26
2019-03-08T10:20:27.269Z,69.02
2019-03-08T10:21:27.274Z,69.64
2019-03-08T10:22:27.247Z,69.51
2019-03-08T10:23:27.230Z,70.22
2019-03-08T10:24:27.220Z,69.81
2019-03-08T10:25:27.209Z,68.92
2019-03-08T10:26:27.215Z,69.74
2019-03-08T10:27:27.187Z,70.22
2019-03-08T10:28:27.174Z,69.23
2019-03-08T10:29:27.162Z,69.54
2019-03-08T10:30:27.154Z,71.08
2019-03-08T10:31:27.161Z,70.39
2019-03-08T10:32:27.129Z,70.50
2019-03-08T10:33:27.117Z,71.21
2019-03-08T10:34:27.105Z,71.83
2019-03-08T10:35:27.096Z,70.15
2019-03-08T10:36:27.103Z,69.10
2019-03-08T10:37:27.073Z,67.40
2019-03-08T10:38:27.059Z,63.10
2019-03-08T10:39:27.047Z,57.36
2019-03-08T10:40:27.038Z,57.65
2019-03-08T10:41:27.041Z,61.40
2019-03-08T10:42:27.014Z,61.43
2019-03-08T10:43:27.001Z,59.75
2019-03-08T10:44:26.990Z,61.79
2019-03-08T10:45:26.978Z,62.05
2019-03-08T10:46:26.983Z,61.77
2019-03-08T10:47:26.952Z,63.03
2019-03-08T10:48:26.943Z,62.73
2019-03-08T10:49:26.932Z,62.45
2019-03-08T10:50:26.920Z,62.24
2019-03-08T10:51:26.928Z,62.96
2019-03-08T10:52:26.896Z,62.76
2019-03-08T10:53:26.886Z,64.70
2019-03-08T10:54:26.878Z,62.76
2019-03-08T10:55:26.859Z,63.50
2019-03-08T10:56:26.848Z,64.97
2019-03-08T10:57:26.860Z,65.37
2019-03-08T10:58:26.833Z,65.37
2019-03-08T10:59:26.818Z,66.60
2019-03-08T11:00:26.803Z,65.86
2019-03-08T11:01:26.791Z,65.08
2019-03-08T11:02:26.797Z,64.77
2019-03-08T11:03:26.768Z,65.15
2019-03-08T11:04:26.757Z,64.64
2019-03-08T11:05:26.748Z,63.21
2019-03-08T11:06:26.734Z,62.74
2019-03-08T11:07:26.739Z,61.28
2019-03-08T11:08:29.698Z,62.74
2019-03-08T11:09:26.697Z,64.64
2019-03-08T11:10:26.685Z,64.98
2019-03-08T11:11:26.672Z,66.54
2019-03-08T11:12:26.709Z,66.78
2019-03-08T11:13:26.653Z,67.60
2019-03-08T11:14:26.640Z,69.65
2019-03-08T11:15:26.634Z,70.47
2019-03-08T11:16:26.616Z,71.32
2019-03-08T11:17:26.603Z,71.97
2019-03-08T11:18:26.611Z,74.40
2019-03-08T11:19:27.658Z,77.23
2019-03-08T11:20:26.572Z,79.33
2019-03-08T11:21:26.559Z,80.12
2019-03-08T11:22:26.548Z,81.97
2019-03-08T11:23:26.556Z,82.32
2019-03-08T11:24:26.523Z,83.51
2019-03-08T11:25:34.675Z,84.75
2019-03-08T11:26:27.507Z,84.91
2019-03-08T11:27:26.490Z,84.09
2019-03-08T11:28:26.499Z,82.45
2019-03-08T11:29:26.468Z,84.20
2019-03-08T11:30:26.456Z,80.19
2019-03-08T11:31:26.445Z,79.98
2019-03-08T11:32:26.434Z,80.29
2019-03-08T11:33:26.439Z,79.26
2019-03-08T11:34:26.409Z,79.98
2019-03-08T11:35:26.399Z,78.33
2019-03-08T11:36:26.386Z,79.05
2019-03-08T11:37:27.829Z,80.39
2019-03-08T11:38:26.382Z,79.77
2019-03-08T11:39:26.354Z,77.96
2019-03-08T11:40:26.340Z,79.33
2019-03-08T11:41:26.329Z,78.44
2019-03-08T11:42:26.324Z,78.44
2019-03-08T11:43:26.325Z,80.13
2019-03-08T11:44:26.294Z,82.19
2019-03-08T11:45:26.384Z,81.47
2019-03-08T11:46:26.272Z,81.26
2019-03-08T11:47:26.259Z,83.12
2019-03-08T11:48:26.268Z,82.77
2019-03-08T11:49:26.235Z,81.23
2019-03-08T11:50:26.224Z,80.36
2019-03-08T11:51:26.213Z,80.05
2019-03-08T11:52:26.202Z,80.05
2019-03-08T11:53:26.237Z,79.71
2019-03-08T11:54:26.183Z,80.39
2019-03-08T11:55:26.168Z,78.96
2019-03-08T11:56:26.160Z,78.98
2019-03-08T11:57:26.144Z,78.98
2019-03-08T11:58:26.219Z,77.30
2019-03-08T11:59:26.139Z,77.06
2019-03-08T12:00:26.109Z,75.79
2019-03-08T12:01:26.096Z,74.19
2019-03-08T12:02:26.087Z,68.36
2019-03-08T12:03:26.075Z,68.20
2019-03-08T12:04:26.086Z,65.16
2019-03-08T12:05:26.053Z,65.43
2019-03-08T12:06:26.038Z,60.13
2019-03-08T12:07:26.028Z,61.52
2019-03-08T12:08:26.020Z,60.77
2019-03-08T12:09:26.030Z,56.76
2019-03-08T12:10:25.996Z,54.31
2019-03-08T12:11:25.983Z,56.26
2019-03-08T12:12:25.970Z,59.72
2019-03-08T12:13:25.959Z,59.98
2019-03-08T12:14:25.967Z,60.43
2019-03-08T12:15:25.960Z,58.76
2019-03-08T12:16:25.923Z,56.76
2019-03-08T12:17:25.913Z,53.83
2019-03-08T12:18:25.901Z,52.26
2019-03-08T12:19:25.911Z,52.16
2019-03-08T12:20:25.880Z,50.90
2019-03-08T12:21:25.866Z,49.16
2019-03-08T12:22:25.857Z,49.36
2019-03-08T12:23:25.843Z,49.08
2019-03-08T12:24:25.853Z,48.47
2019-03-08T12:25:25.823Z,49.87
2019-03-08T12:26:25.824Z,48.85
2019-03-08T12:27:25.801Z,51.55
2019-03-08T12:28:25.786Z,54.26
2019-03-08T12:29:25.800Z,57.69
2019-03-08T12:30:25.767Z,58.15
2019-03-08T12:31:25.756Z,60.66
2019-03-08T12:32:25.745Z,59.14
2019-03-08T12:33:25.732Z,60.83
2019-03-08T12:34:25.716Z,60.99
2019-03-08T12:35:25.724Z,63.40
2019-03-08T12:36:25.694Z,61.66
2019-03-08T12:37:25.682Z,61.65
2019-03-08T12:38:25.670Z,57.51
2019-03-08T12:39:25.660Z,55.47
2019-03-08T12:40:25.664Z,54.44
2019-03-08T12:41:25.638Z,49.73
2019-03-08T12:42:25.624Z,51.09
2019-03-08T12:43:25.612Z,48.90
2019-03-08T12:44:25.605Z,49.08
2019-03-08T12:45:25.608Z,49.16
2019-03-08T12:46:25.579Z,49.38
2019-03-08T12:47:25.567Z,52.41
2019-03-08T12:48:25.555Z,50.18
2019-03-08T12:49:25.544Z,48.22
2019-03-08T12:50:25.552Z,46.76
2019-03-08T12:51:25.519Z,46.94
2019-03-08T12:52:25.513Z,48.71
2019-03-08T12:53:25.501Z,44.75